Time;durP1;ratioP1;P1;durP2;ratioP2;P2;SDS_P1;SDS_P2;PMS_P1;PMS_P2;Temp;Humidity;BMP_temperature;BMP_pressure;BME280_temperature;BME280_humidity;BME280_pressure;Samples;Min_cycle;Max_cycle;Signal;HPM_P1;HPM_P2
2023/05/06 00:02:07;;;;;;;5.37;3.23;;;;;;;19.13;66.01;97525.81;5039325;28;20297;-72
2023/05/06 00:04:33;;;;;;;3.80;3.40;;;;;;;19.11;66.01;97533.16;5040202;28;20207;-71
2023/05/06 00:06:58;;;;;;;3.60;2.90;;;;;;;19.09;66.22;97539.69;5047729;28;20453;-68
2023/05/06 00:09:23;;;;;;;4.50;3.40;;;;;;;19.10;65.85;97530.69;5038833;28;20175;-69
2023/05/06 00:11:49;;;;;;;4.00;2.90;;;;;;;19.10;65.71;97530.69;5035646;28;20719;-69
2023/05/06 00:14:15;;;;;;;3.60;3.30;;;;;;;19.04;65.80;97526.97;5040493;28;21584;-70
2023/05/06 00:16:41;;;;;;;4.10;3.40;;;;;;;19.02;65.54;97534.34;5034499;28;20703;-71
2023/05/06 00:19:06;;;;;;;6.80;2.93;;;;;;;18.96;66.11;97525.34;5032742;28;20942;-70
2023/05/06 00:21:32;;;;;;;4.80;3.03;;;;;;;18.94;65.93;97521.22;5031244;28;20211;-69
2023/05/06 00:23:57;;;;;;;5.60;3.30;;;;;;;18.91;65.89;97509.16;5043882;28;20232;-70
2023/05/06 00:26:22;;;;;;;3.40;3.10;;;;;;;18.92;66.25;97512.59;5046070;28;20168;-69
2023/05/06 00:28:48;;;;;;;4.07;3.67;;;;;;;18.93;66.27;97512.44;5037355;28;20179;-69
2023/05/06 00:31:13;;;;;;;4.70;3.60;;;;;;;18.93;66.00;97527.53;5034804;28;20298;-71
2023/05/06 00:33:40;;;;;;;3.60;3.30;;;;;;;18.91;66.19;97530.38;5036911;28;20176;-71
2023/05/06 00:36:05;;;;;;;4.20;3.90;;;;;;;18.90;66.07;97531.41;5038614;28;20183;-70
2023/05/06 00:38:31;;;;;;;3.10;2.90;;;;;;;18.87;66.20;97529.97;5035578;28;20430;-70
2023/05/06 00:40:56;;;;;;;3.47;3.27;;;;;;;18.87;65.76;97527.31;5046875;28;20206;-70
2023/05/06 00:43:22;;;;;;;5.07;3.50;;;;;;;18.80;65.70;97526.44;5023386;28;20553;-69
2023/05/06 00:45:47;;;;;;;4.40;3.30;;;;;;;18.76;66.02;97527.88;5040627;28;20191;-71
2023/05/06 00:48:13;;;;;;;4.13;3.70;;;;;;;18.67;66.50;97521.91;5033201;28;20317;-69
2023/05/06 00:50:39;;;;;;;5.73;4.10;;;;;;;18.63;66.72;97520.66;5036512;28;20551;-72
2023/05/06 00:53:07;;;;;;;6.63;3.80;;;;;;;18.64;66.59;97521.50;5033840;28;20179;-71
2023/05/06 00:55:32;;;;;;;6.63;3.50;;;;;;;18.62;66.38;97523.50;5040201;28;20415;-71
2023/05/06 00:57:58;;;;;;;3.53;3.20;;;;;;;18.60;66.12;97517.56;5032741;28;20449;-71
2023/05/06 01:00:24;;;;;;;4.30;2.70;;;;;;;18.54;65.63;97511.22;5034677;28;20656;-69
2023/05/06 01:02:49;;;;;;;3.03;2.77;;;;;;;18.54;65.34;97517.34;5038367;28;20204;-70
2023/05/06 01:05:16;;;;;;;3.60;2.50;;;;;;;18.51;65.06;97512.44;5028372;28;20236;-70
2023/05/06 01:08:05;;;;;;;2.90;2.70;;;;;;;18.48;65.07;97518.13;5043355;28;20177;-69
2023/05/06 01:10:54;;;;;;;8.67;2.43;;;;;;;18.40;65.52;97520.91;5030255;28;20784;-69
2023/05/06 01:13:30;;;;;;;4.70;2.47;;;;;;;18.43;65.32;97515.22;5036310;28;20411;-72
2023/05/06 01:15:58;;;;;;;3.30;2.40;;;;;;;18.47;65.09;97515.66;5035825;28;20433;-71
2023/05/06 01:18:25;;;;;;;3.40;2.80;;;;;;;18.46;65.02;97514.84;5034006;28;20411;-70
2023/05/06 01:20:52;;;;;;;4.10;2.90;;;;;;;18.33;65.18;97509.47;5042498;28;20492;-70
2023/05/06 01:23:18;;;;;;;3.00;2.40;;;;;;;18.35;65.08;97516.19;5042796;28;20501;-70
2023/05/06 01:25:44;;;;;;;2.60;2.40;;;;;;;18.38;65.44;97515.00;5038457;28;21042;-70
2023/05/06 01:28:10;;;;;;;2.90;2.60;;;;;;;18.34;65.17;97516.41;5040125;28;20604;-69
2023/05/06 01:30:52;;;;;;;3.00;2.43;;;;;;;18.35;65.34;97515.41;5036673;28;20183;-71
2023/05/06 01:33:17;;;;;;;2.77;2.57;;;;;;;18.33;65.42;97514.75;5031725;28;20442;-70
2023/05/06 01:35:50;;;;;;;2.57;2.37;;;;;;;18.31;65.23;97516.78;5034539;28;20437;-70
2023/05/06 01:38:51;;;;;;;3.50;2.23;;;;;;;18.24;65.54;97506.13;5036167;28;20183;-69
2023/05/06 01:41:16;;;;;;;3.60;3.20;;;;;;;18.23;65.68;97510.63;5020172;28;20989;-70
2023/05/06 01:43:44;;;;;;;3.50;2.70;;;;;;;18.22;65.78;97509.00;5038601;28;20426;-70
2023/05/06 01:46:15;;;;;;;4.53;1.90;;;;;;;18.24;65.61;97522.06;5042682;28;20302;-69
2023/05/06 01:48:41;;;;;;;3.30;2.50;;;;;;;18.25;65.79;97521.88;5035752;28;20926;-69
2023/05/06 01:51:07;;;;;;;3.00;2.53;;;;;;;18.27;65.41;97517.16;5034797;28;20446;-70
2023/05/06 01:53:32;;;;;;;3.37;2.63;;;;;;;18.14;65.56;97517.09;5036952;28;20983;-70
2023/05/06 01:55:58;;;;;;;3.33;2.07;;;;;;;18.01;66.23;97522.31;5038687;28;20267;-70
2023/05/06 01:58:23;;;;;;;4.10;2.40;;;;;;;17.99;66.37;97525.13;5042159;28;20210;-70
2023/05/06 02:00:49;;;;;;;5.17;2.80;;;;;;;17.91;66.75;97525.25;5039231;28;20626;-70
2023/05/06 02:03:14;;;;;;;3.17;2.47;;;;;;;17.95;67.00;97529.16;5037200;28;20261;-70
2023/05/06 02:05:40;;;;;;;5.33;2.60;;;;;;;18.05;66.70;97529.69;5037299;28;20187;-69
2023/05/06 02:08:05;;;;;;;2.27;2.07;;;;;;;18.04;66.26;97522.75;5035830;28;20200;-69
2023/05/06 02:10:30;;;;;;;3.73;2.23;;;;;;;18.03;65.46;97523.75;5030108;28;20218;-69
2023/05/06 02:12:56;;;;;;;2.77;2.50;;;;;;;18.11;65.22;97517.47;5027279;28;20215;-69
2023/05/06 02:15:21;;;;;;;2.73;2.37;;;;;;;18.12;65.03;97519.13;5033197;28;20270;-70
2023/05/06 02:17:48;;;;;;;4.03;2.10;;;;;;;18.09;64.87;97520.31;5033122;28;20657;-69
2023/05/06 02:20:13;;;;;;;2.70;2.40;;;;;;;18.13;64.54;97514.63;5030537;28;20286;-69
2023/05/06 02:22:39;;;;;;;5.53;2.30;;;;;;;18.10;64.14;97527.25;5040793;28;20465;-69
2023/05/06 02:25:05;;;;;;;3.20;2.40;;;;;;;18.10;64.17;97521.94;5035759;28;20176;-69
2023/05/06 02:27:30;;;;;;;3.13;2.70;;;;;;;18.15;64.13;97526.66;5036892;28;20225;-69
2023/05/06 02:29:55;;;;;;;4.20;2.27;;;;;;;18.16;64.04;97527.50;5034646;28;20415;-72
2023/05/06 02:32:21;;;;;;;2.70;2.30;;;;;;;18.19;63.99;97519.19;5037036;28;20254;-70
2023/05/06 02:34:46;;;;;;;2.60;2.40;;;;;;;18.18;63.70;97518.34;5035678;28;20608;-70
2023/05/06 02:37:12;;;;;;;2.90;2.00;;;;;;;18.17;63.66;97518.53;5039021;28;20270;-71
2023/05/06 02:39:37;;;;;;;2.70;2.50;;;;;;;18.15;64.08;97523.22;5030700;28;20199;-71
2023/05/06 02:42:03;;;;;;;2.40;2.20;;;;;;;18.08;65.09;97517.88;5034322;28;20724;-69
2023/05/06 02:44:28;;;;;;;2.50;2.30;;;;;;;18.12;65.27;97508.53;5044756;28;20610;-72
2023/05/06 02:46:54;;;;;;;2.40;2.20;;;;;;;18.07;65.79;97518.88;5030452;28;20868;-70
2023/05/06 02:49:19;;;;;;;3.10;2.40;;;;;;;18.12;65.92;97503.22;5028361;28;20202;-71
2023/05/06 02:51:44;;;;;;;3.23;2.93;;;;;;;18.03;65.33;97499.03;5035493;28;20235;-70
2023/05/06 02:54:10;;;;;;;2.50;2.30;;;;;;;18.01;65.43;97496.59;5036933;28;20273;-72
2023/05/06 02:56:35;;;;;;;2.50;2.30;;;;;;;18.10;65.00;97502.59;5049127;28;20262;-70
2023/05/06 02:59:02;;;;;;;2.87;2.40;;;;;;;18.07;65.07;97503.78;5042845;28;20191;-69
2023/05/06 03:01:28;;;;;;;3.90;2.90;;;;;;;18.08;65.00;97505.41;5036300;28;20313;-71
2023/05/06 03:03:53;;;;;;;2.70;2.40;;;;;;;18.07;64.81;97508.25;5038425;28;20504;-71
2023/05/06 03:06:19;;;;;;;2.50;2.30;;;;;;;17.99;64.91;97508.41;5041941;28;20215;-72
2023/05/06 03:08:44;;;;;;;2.67;2.47;;;;;;;17.89;65.65;97506.06;5037191;28;20222;-70
2023/05/06 03:11:10;;;;;;;2.73;2.50;;;;;;;17.90;65.84;97503.22;5030875;28;20210;-71
2023/05/06 03:13:35;;;;;;;4.53;2.87;;;;;;;17.87;66.04;97511.56;5037815;28;20214;-70
2023/05/06 03:16:01;;;;;;;5.53;2.63;;;;;;;17.93;65.96;97508.13;5040441;28;20257;-70
2023/05/06 03:18:26;;;;;;;3.03;2.70;;;;;;;17.94;65.70;97507.13;5032641;28;20188;-70
2023/05/06 03:20:52;;;;;;;3.00;2.73;;;;;;;17.91;65.61;97506.69;5048025;28;20906;-70
2023/05/06 03:23:17;;;;;;;5.07;2.90;;;;;;;17.92;65.74;97501.19;5041912;28;20186;-69
2023/05/06 03:25:43;;;;;;;2.70;2.50;;;;;;;17.89;65.66;97500.75;5034408;28;20176;-70
2023/05/06 03:28:08;;;;;;;7.33;2.63;;;;;;;17.80;66.19;97502.72;5031487;28;20195;-69
2023/05/06 03:30:34;;;;;;;5.83;2.63;;;;;;;17.79;66.38;97501.06;5039543;28;20258;-69
2023/05/06 03:33:00;;;;;;;7.63;2.70;;;;;;;17.84;65.70;97501.34;5034322;28;20226;-71
2023/05/06 03:35:25;;;;;;;2.50;2.30;;;;;;;17.76;65.98;97499.63;5034986;28;20184;-70
2023/05/06 03:37:51;;;;;;;2.50;2.30;;;;;;;17.66;66.19;97497.31;5035416;28;21037;-70
2023/05/06 03:40:16;;;;;;;2.43;2.23;;;;;;;17.69;66.48;97497.94;5041773;28;20198;-71
2023/05/06 03:42:42;;;;;;;2.87;2.47;;;;;;;17.71;66.41;97495.91;5038080;28;20257;-70
2023/05/06 03:45:08;;;;;;;2.60;2.40;;;;;;;17.69;65.96;97500.59;5032703;28;20200;-71
2023/05/06 03:47:33;;;;;;;3.20;3.00;;;;;;;17.66;65.93;97499.16;5033689;28;20184;-70
2023/05/06 03:49:58;;;;;;;4.53;2.57;;;;;;;17.66;66.09;97488.53;5032235;28;20180;-70
2023/05/06 03:52:24;;;;;;;7.53;2.67;;;;;;;17.70;65.75;97497.75;5033590;28;20289;-70
2023/05/06 03:54:50;;;;;;;4.53;2.93;;;;;;;17.67;65.91;97498.13;5032285;28;20270;-70
2023/05/06 03:57:15;;;;;;;8.93;3.00;;;;;;;17.55;66.08;97489.06;5023872;28;20199;-69
2023/05/06 03:59:41;;;;;;;6.53;3.30;;;;;;;17.58;66.27;97494.78;5038467;28;20203;-69
2023/05/06 04:02:06;;;;;;;3.50;2.90;;;;;;;17.56;65.85;97494.16;5038469;28;20199;-71
2023/05/06 04:04:31;;;;;;;3.23;2.50;;;;;;;17.48;66.01;97492.44;5046237;28;20261;-70
2023/05/06 04:06:57;;;;;;;2.40;2.20;;;;;;;17.51;66.16;97496.56;5016720;28;20653;-70
2023/05/06 04:09:22;;;;;;;3.40;2.63;;;;;;;17.48;66.01;97491.66;5036830;28;20267;-70
2023/05/06 04:11:48;;;;;;;2.53;2.27;;;;;;;17.50;66.02;97494.94;5038169;28;20211;-70
2023/05/06 04:14:13;;;;;;;3.10;2.70;;;;;;;17.43;65.90;97496.69;5036618;28;20266;-71
2023/05/06 04:16:39;;;;;;;3.20;2.70;;;;;;;17.46;65.78;97499.75;5035542;28;20188;-72
2023/05/06 04:19:05;;;;;;;3.97;2.50;;;;;;;17.47;65.83;97503.25;5031756;28;20192;-71
2023/05/06 04:21:31;;;;;;;4.47;2.50;;;;;;;17.43;65.55;97499.34;5045767;28;20237;-71
2023/05/06 04:23:56;;;;;;;2.60;2.40;;;;;;;17.36;65.48;97499.25;5037447;28;20426;-70
2023/05/06 04:26:22;;;;;;;2.57;2.37;;;;;;;17.40;65.77;97505.00;5036571;28;20184;-71
2023/05/06 04:28:47;;;;;;;3.70;2.70;;;;;;;17.38;65.63;97512.34;5046377;28;20807;-70
2023/05/06 04:31:13;;;;;;;4.13;2.40;;;;;;;17.31;65.55;97513.06;5044349;28;20215;-71
2023/05/06 04:33:39;;;;;;;3.10;2.80;;;;;;;17.29;65.43;97509.78;5037105;28;20190;-71
2023/05/06 04:36:05;;;;;;;6.50;2.60;;;;;;;17.26;65.53;97515.47;5033995;28;20581;-71
2023/05/06 04:38:31;;;;;;;3.63;3.10;;;;;;;17.20;65.53;97518.88;5032405;28;20492;-70
2023/05/06 04:40:57;;;;;;;6.93;3.00;;;;;;;17.20;65.77;97513.56;5042604;28;20237;-71
2023/05/06 04:43:24;;;;;;;5.40;2.93;;;;;;;17.23;65.71;97521.16;5038626;28;20918;-71
2023/05/06 04:45:50;;;;;;;6.57;2.90;;;;;;;17.08;65.88;97526.47;5035181;28;20648;-70
2023/05/06 04:48:21;;;;;;;6.13;3.00;;;;;;;17.16;65.80;97520.25;5045993;28;20521;-71
2023/05/06 04:50:47;;;;;;;7.47;2.83;;;;;;;17.21;65.60;97523.16;5041006;28;20175;-69
2023/05/06 04:53:13;;;;;;;10.67;3.47;;;;;;;17.13;65.81;97516.16;5041007;28;20456;-70
2023/05/06 04:55:39;;;;;;;8.60;3.73;;;;;;;17.15;65.92;97529.19;5032081;28;20418;-69
2023/05/06 04:58:04;;;;;;;5.50;3.13;;;;;;;17.21;65.69;97531.09;5038968;28;20858;-70
2023/05/06 05:00:30;;;;;;;8.23;4.07;;;;;;;17.19;65.53;97533.94;5029569;28;20303;-70
2023/05/06 05:02:55;;;;;;;10.83;3.87;;;;;;;17.24;65.83;97533.38;5043209;28;20206;-71
2023/05/06 05:05:21;;;;;;;4.10;3.30;;;;;;;17.31;65.76;97542.22;5039260;28;20667;-70
2023/05/06 05:07:46;;;;;;;12.40;3.60;;;;;;;17.38;65.50;97544.13;5042273;28;20266;-69
2023/05/06 05:10:12;;;;;;;7.50;3.57;;;;;;;17.38;65.46;97541.47;5039584;28;20278;-72
2023/05/06 05:12:37;;;;;;;3.70;3.30;;;;;;;17.32;65.47;97538.56;5038247;28;20204;-70
2023/05/06 05:15:03;;;;;;;10.43;3.70;;;;;;;17.29;65.37;97544.22;5045344;28;20199;-69
2023/05/06 05:17:29;;;;;;;5.30;3.97;;;;;;;17.25;65.64;97542.13;5037124;28;20254;-69
2023/05/06 05:19:54;;;;;;;11.23;4.03;;;;;;;17.22;65.69;97540.69;5044844;28;20278;-71
2023/05/06 05:22:20;;;;;;;4.00;3.70;;;;;;;17.07;65.99;97543.38;5045667;28;20217;-68
2023/05/06 05:24:45;;;;;;;7.43;3.57;;;;;;;17.14;66.04;97544.28;5034500;28;20218;-72
2023/05/06 05:27:11;;;;;;;5.10;4.20;;;;;;;17.19;66.25;97547.19;5029125;28;20190;-72
2023/05/06 05:29:36;;;;;;;9.47;4.30;;;;;;;17.27;65.99;97551.53;5032483;28;20202;-70
2023/05/06 05:32:02;;;;;;;6.57;4.70;;;;;;;17.35;66.15;97558.53;5030150;28;20298;-70
2023/05/06 05:34:28;;;;;;;9.13;3.70;;;;;;;17.50;66.27;97563.81;5030883;28;20192;-71
2023/05/06 05:36:54;;;;;;;3.80;3.50;;;;;;;17.60;66.47;97561.69;5036498;28;20245;-70
2023/05/06 05:39:19;;;;;;;6.13;3.83;;;;;;;17.67;66.31;97559.09;5032578;28;20418;-71
2023/05/06 05:41:45;;;;;;;4.70;4.13;;;;;;;17.64;65.54;97564.75;5034388;28;20202;-71
2023/05/06 05:44:10;;;;;;;5.50;3.57;;;;;;;17.72;65.44;97561.19;5032993;28;20229;-71
2023/05/06 05:46:36;;;;;;;4.80;3.77;;;;;;;17.82;64.55;97564.31;5034361;28;20218;-71
2023/05/06 05:49:01;;;;;;;3.97;3.60;;;;;;;17.93;64.54;97563.81;5029261;28;20234;-71
2023/05/06 05:51:26;;;;;;;7.00;3.60;;;;;;;18.07;64.50;97564.78;5033285;28;20675;-71
2023/05/06 05:53:52;;;;;;;7.53;3.90;;;;;;;18.19;63.34;97566.91;5034092;28;20583;-71
2023/05/06 05:56:17;;;;;;;7.60;3.13;;;;;;;18.35;63.16;97560.50;5036692;28;20187;-72
2023/05/06 05:58:43;;;;;;;5.40;3.67;;;;;;;18.52;63.16;97561.00;5031651;28;20676;-70
2023/05/06 06:01:09;;;;;;;4.40;3.80;;;;;;;18.61;62.72;97569.66;5030009;28;20222;-72
2023/05/06 06:03:34;;;;;;;7.03;3.30;;;;;;;18.77;62.65;97557.88;5028952;28;20191;-72
2023/05/06 06:06:00;;;;;;;3.50;3.20;;;;;;;18.96;62.16;97561.69;5027998;28;20195;-71
2023/05/06 06:08:25;;;;;;;4.00;3.17;;;;;;;19.09;61.80;97564.41;5031100;28;20325;-70
2023/05/06 06:10:51;;;;;;;3.30;3.10;;;;;;;19.23;61.00;97556.50;5030222;28;20603;-71
2023/05/06 06:13:16;;;;;;;3.20;2.90;;;;;;;19.36;60.05;97561.84;5026086;28;20193;-69
2023/05/06 06:15:42;;;;;;;8.70;3.10;;;;;;;19.51;59.20;97563.53;5036614;28;20187;-72
2023/05/06 06:18:07;;;;;;;2.73;2.00;;;;;;;19.63;58.24;97564.56;5024968;28;20203;-72
2023/05/06 06:20:34;;;;;;;5.80;2.47;;;;;;;19.72;56.97;97555.38;5029497;28;20852;-71
2023/05/06 06:22:59;;;;;;;7.27;2.73;;;;;;;19.82;57.15;97549.66;5026439;28;20269;-71
2023/05/06 06:25:25;;;;;;;4.00;2.80;;;;;;;19.92;55.70;97559.91;5027152;28;21201;-71
2023/05/06 06:27:50;;;;;;;3.87;2.30;;;;;;;19.99;55.90;97558.09;5031571;28;20742;-72
2023/05/06 06:30:16;;;;;;;2.37;2.17;;;;;;;20.10;55.69;97560.13;5027647;28;20179;-73
2023/05/06 06:32:51;;;;;;;3.27;2.30;;;;;;;20.17;55.41;97561.97;5026595;28;20252;-72
2023/05/06 06:35:18;;;;;;;3.50;2.30;;;;;;;20.27;54.99;97570.38;5026557;28;20177;-72
2023/05/06 06:37:44;;;;;;;3.67;2.07;;;;;;;20.37;54.73;97561.94;5023064;28;20455;-72
2023/05/06 06:40:11;;;;;;;2.87;2.20;;;;;;;20.48;54.85;97571.97;5033520;28;20977;-74
2023/05/06 06:42:36;;;;;;;3.43;2.00;;;;;;;20.56;54.08;97577.09;5036463;28;20442;-71
2023/05/06 06:45:02;;;;;;;3.03;2.43;;;;;;;20.66;53.67;97582.00;5037055;28;20505;-70
2023/05/06 06:47:27;;;;;;;9.03;6.07;;;;;;;20.79;53.38;97575.84;5032424;28;20554;-70
2023/05/06 06:49:53;;;;;;;7.73;5.60;;;;;;;20.94;53.41;97575.59;5031326;28;20661;-70
2023/05/06 06:52:18;;;;;;;4.80;3.67;;;;;;;21.09;53.49;97579.84;5028093;28;20664;-72
2023/05/06 06:54:44;;;;;;;3.30;2.10;;;;;;;21.21;52.20;97577.34;5038428;28;20211;-69
2023/05/06 06:57:10;;;;;;;1.50;1.40;;;;;;;21.32;51.45;97574.81;5033269;28;20296;-72
2023/05/06 06:59:35;;;;;;;2.27;2.00;;;;;;;21.48;51.03;97575.38;5038621;28;20183;-74
2023/05/06 07:02:01;;;;;;;3.43;1.90;;;;;;;21.49;50.41;97569.81;5015100;28;20443;-71
2023/05/06 07:04:26;;;;;;;3.27;1.77;;;;;;;21.45;50.22;97576.63;5035088;28;20183;-70
2023/05/06 07:06:52;;;;;;;2.20;1.60;;;;;;;21.40;50.26;97576.41;5038843;28;20617;-70
2023/05/06 07:09:17;;;;;;;3.87;2.00;;;;;;;21.39;50.77;97584.66;5041664;28;20194;-71
2023/05/06 07:11:43;;;;;;;4.50;1.40;;;;;;;21.35;49.63;97578.94;5028042;28;20196;-72
2023/05/06 07:14:08;;;;;;;2.33;1.80;;;;;;;21.32;49.86;97582.00;5032555;28;20184;-72
2023/05/06 07:16:33;;;;;;;2.50;1.50;;;;;;;21.42;49.61;97584.22;5041051;28;20179;-72
2023/05/06 07:19:00;;;;;;;1.60;1.50;;;;;;;21.46;49.61;97586.25;5032075;28;20176;-72
2023/05/06 07:21:26;;;;;;;1.60;1.23;;;;;;;21.43;49.41;97585.84;5036293;28;20252;-70
2023/05/06 07:23:51;;;;;;;2.40;1.57;;;;;;;21.50;49.60;97589.31;5035607;28;20571;-71
2023/05/06 07:26:17;;;;;;;2.17;1.40;;;;;;;21.54;49.17;97587.84;5037256;28;20202;-71
2023/05/06 07:28:42;;;;;;;1.63;1.50;;;;;;;21.58;49.05;97586.38;5037828;28;20184;-72
2023/05/06 07:31:08;;;;;;;2.67;1.13;;;;;;;21.54;48.76;97597.69;5036219;28;20207;-72
2023/05/06 07:33:33;;;;;;;3.33;1.30;;;;;;;21.58;49.38;97594.38;5036616;28;20183;-72
2023/05/06 07:35:59;;;;;;;2.07;1.40;;;;;;;21.65;49.77;97596.22;5039821;28;20188;-71
2023/05/06 07:38:24;;;;;;;1.83;1.20;;;;;;;21.91;49.65;97595.22;5041884;28;20289;-71
2023/05/06 07:40:50;;;;;;;3.00;1.10;;;;;;;22.15;49.04;97593.63;5039954;28;20214;-72
2023/05/06 07:43:15;;;;;;;2.80;1.30;;;;;;;22.34;47.90;97585.66;5045196;28;20199;-73
2023/05/06 07:45:41;;;;;;;5.10;1.40;;;;;;;22.61;46.88;97591.63;5033838;28;20188;-71
2023/05/06 07:48:06;;;;;;;2.80;1.40;;;;;;;22.62;45.88;97592.44;5037018;28;20187;-71
2023/05/06 07:50:32;;;;;;;2.00;1.37;;;;;;;22.69;45.40;97591.31;5034454;28;20175;-71
2023/05/06 07:52:58;;;;;;;2.50;1.33;;;;;;;22.69;44.97;97593.16;5037775;28;20686;-71
2023/05/06 07:55:24;;;;;;;2.70;1.33;;;;;;;22.58;44.83;97592.06;5032917;28;20196;-70
2023/05/06 07:57:50;;;;;;;1.50;1.20;;;;;;;22.53;44.34;97592.72;5039656;28;20422;-71
2023/05/06 08:00:16;;;;;;;3.30;1.67;;;;;;;22.48;44.77;97597.88;5036961;28;20497;-71
2023/05/06 08:02:43;;;;;;;3.37;1.20;;;;;;;22.56;44.17;97596.78;5044797;28;20222;-70
2023/05/06 08:05:12;;;;;;;1.97;1.20;;;;;;;22.65;44.57;97597.34;5045026;28;20180;-70
2023/05/06 08:07:41;;;;;;;2.53;1.13;;;;;;;22.72;45.16;97603.41;5035537;28;20448;-72
2023/05/06 08:10:07;;;;;;;2.53;1.30;;;;;;;23.01;44.88;97606.41;5031705;28;20914;-70
2023/05/06 08:12:34;;;;;;;3.57;1.40;;;;;;;23.17;43.56;97600.47;5033501;28;20440;-71
2023/05/06 08:14:59;;;;;;;1.43;1.20;;;;;;;23.29;43.58;97605.09;5039915;28;20421;-73
2023/05/06 08:17:25;;;;;;;5.33;1.20;;;;;;;23.49;43.40;97604.00;5034603;28;20510;-71
2023/05/06 08:19:50;;;;;;;3.50;1.10;;;;;;;23.74;43.28;97604.69;5033895;28;20258;-73
2023/05/06 08:22:16;;;;;;;1.40;1.10;;;;;;;23.80;41.93;97608.31;5039608;28;20716;-72
2023/05/06 08:24:41;;;;;;;2.33;1.10;;;;;;;24.02;42.15;97605.13;5035451;28;20183;-72
2023/05/06 08:27:07;;;;;;;1.70;1.20;;;;;;;24.16;41.03;97605.75;5037122;28;20184;-71
2023/05/06 08:29:32;;;;;;;3.87;1.10;;;;;;;24.27;39.75;97599.59;5034368;28;20207;-69
2023/05/06 08:31:58;;;;;;;2.20;1.00;;;;;;;24.30;39.10;97601.81;5039706;28;20313;-71
2023/05/06 08:34:23;;;;;;;3.53;0.90;;;;;;;24.31;39.25;97606.13;5036619;28;20658;-68
2023/05/06 08:36:49;;;;;;;2.90;1.10;;;;;;;24.47;40.30;97601.13;5045441;28;20198;-71
2023/05/06 08:39:14;;;;;;;5.70;1.00;;;;;;;24.59;40.23;97603.81;5042305;28;20187;-73
2023/05/06 08:41:40;;;;;;;1.23;0.80;;;;;;;24.49;39.20;97604.38;5039510;28;20217;-70
2023/05/06 08:44:06;;;;;;;2.07;1.10;;;;;;;24.48;39.61;97602.75;5035420;28;20183;-70
2023/05/06 08:46:32;;;;;;;3.87;1.43;;;;;;;24.50;38.79;97598.81;5040121;28;20464;-71
2023/05/06 08:48:58;;;;;;;1.10;1.00;;;;;;;24.75;39.61;97599.63;5030439;28;20458;-72
2023/05/06 08:51:28;;;;;;;1.80;0.90;;;;;;;24.76;39.54;97594.03;5040250;28;20234;-72
2023/05/06 08:53:54;;;;;;;1.37;1.00;;;;;;;25.06;38.78;97601.09;5030280;28;20418;-71
2023/05/06 08:56:23;;;;;;;3.43;1.03;;;;;;;25.30;38.42;97604.56;5038023;28;20457;-71
2023/05/06 08:58:50;;;;;;;2.73;1.03;;;;;;;25.45;38.06;97605.94;5032375;28;20426;-71
2023/05/06 09:01:16;;;;;;;3.70;1.00;;;;;;;25.34;38.10;97614.78;5038648;28;20985;-72
2023/05/06 09:03:42;;;;;;;3.23;1.33;;;;;;;24.90;37.47;97605.34;5038694;28;20424;-70
2023/05/06 09:06:09;;;;;;;1.67;1.00;;;;;;;24.90;38.33;97605.34;5032085;28;20223;-71
2023/05/06 09:08:35;;;;;;;2.67;1.40;;;;;;;24.77;37.77;97606.38;5039552;28;20433;-72
2023/05/06 09:11:00;;;;;;;1.50;1.40;;;;;;;24.70;38.14;97603.03;5032639;28;20421;-71
2023/05/06 09:13:26;;;;;;;1.10;1.00;;;;;;;24.48;38.34;97606.25;5039281;28;20422;-71
2023/05/06 09:15:52;;;;;;;1.30;1.10;;;;;;;24.50;38.00;97606.03;5046933;28;20271;-71
2023/05/06 09:18:18;;;;;;;2.57;2.10;;;;;;;24.48;38.78;97608.94;5038326;28;20187;-71
2023/05/06 09:20:48;;;;;;;11.53;5.67;;;;;;;24.45;39.64;97609.41;5040731;28;20456;-72
2023/05/06 09:23:14;;;;;;;2.43;2.23;;;;;;;24.34;38.96;97607.53;5037919;28;20226;-71
2023/05/06 09:25:41;;;;;;;3.10;1.00;;;;;;;24.27;39.42;97599.59;5033942;28;20895;-71
2023/05/06 09:28:11;;;;;;;1.10;0.90;;;;;;;24.17;39.08;97602.84;5031024;28;20457;-73
2023/05/06 09:30:44;;;;;;;3.67;1.50;;;;;;;24.04;38.63;97595.84;5034930;28;20415;-71
2023/05/06 09:33:10;;;;;;;2.57;1.37;;;;;;;23.91;39.42;97596.03;5043993;28;20453;-70
2023/05/06 09:35:37;;;;;;;2.73;2.10;;;;;;;23.82;39.47;97606.22;5042279;28;20457;-71
2023/05/06 09:38:03;;;;;;;2.00;1.10;;;;;;;23.75;39.56;97600.16;5037874;28;20429;-72
2023/05/06 09:40:29;;;;;;;2.63;1.13;;;;;;;23.67;39.79;97598.63;5036630;28;20978;-70
2023/05/06 09:42:55;;;;;;;2.73;1.67;;;;;;;23.64;40.27;97599.06;5029550;28;20259;-73
2023/05/06 09:45:20;;;;;;;2.47;1.10;;;;;;;23.91;39.40;97591.47;5032593;28;20488;-71
2023/05/06 09:47:48;;;;;;;1.43;1.03;;;;;;;24.23;38.90;97591.22;5038413;28;20569;-71
2023/05/06 09:50:14;;;;;;;2.50;1.17;;;;;;;24.63;37.69;97587.03;5037324;28;20556;-71
2023/05/06 09:52:43;;;;;;;1.20;0.90;;;;;;;24.90;37.25;97580.38;5034318;28;20446;-71
2023/05/06 09:55:10;;;;;;;6.50;1.40;;;;;;;25.34;36.80;97583.44;5032772;28;20461;-72
2023/05/06 09:57:36;;;;;;;4.03;0.93;;;;;;;25.56;35.69;97580.09;5030415;28;20438;-71
2023/05/06 10:00:03;;;;;;;3.17;1.23;;;;;;;25.71;36.03;97585.75;5039461;28;20812;-70
2023/05/06 10:02:29;;;;;;;1.40;0.90;;;;;;;25.52;35.61;97585.13;5042021;28;20215;-72
2023/05/06 10:04:56;;;;;;;3.43;0.87;;;;;;;25.84;34.82;97581.94;5029483;28;20443;-72
2023/05/06 10:07:22;;;;;;;1.90;1.00;;;;;;;25.88;33.70;97566.97;5034332;28;20793;-71
2023/05/06 10:09:48;;;;;;;1.33;0.90;;;;;;;26.03;35.07;97568.28;5038319;28;20413;-71
2023/05/06 10:12:14;;;;;;;1.60;0.97;;;;;;;26.03;34.12;97568.28;5032101;28;20448;-72
2023/05/06 10:14:39;;;;;;;3.13;1.00;;;;;;;26.34;32.96;97568.78;5047875;28;20684;-70
2023/05/06 10:17:09;;;;;;;2.23;1.20;;;;;;;26.58;32.21;97563.25;5041091;28;20191;-69
2023/05/06 10:19:35;;;;;;;2.60;1.10;;;;;;;26.48;33.13;97562.00;5030364;28;20568;-71
2023/05/06 10:22:18;;;;;;;2.40;0.90;;;;;;;26.21;33.44;97557.31;5032796;28;20456;-70
2023/05/06 10:25:05;;;;;;;3.63;0.90;;;;;;;26.40;33.28;97558.97;5031588;28;20417;-72
2023/05/06 10:27:34;;;;;;;2.40;1.00;;;;;;;26.73;32.52;97549.19;5031484;28;20418;-71
2023/05/06 10:30:00;;;;;;;1.10;0.90;;;;;;;26.49;32.12;97554.78;5028036;28;20914;-70
2023/05/06 10:32:30;;;;;;;2.77;0.80;;;;;;;26.95;32.34;97552.72;5037331;28;20441;-67
2023/05/06 10:34:57;;;;;;;2.73;0.90;;;;;;;27.15;31.47;97537.91;5036218;28;20536;-68
2023/05/06 10:37:24;;;;;;;4.00;1.00;;;;;;;27.44;30.85;97543.91;5014203;28;20444;-72
2023/05/06 10:39:52;;;;;;;5.40;1.10;;;;;;;27.62;30.03;97543.78;5050078;28;20454;-67
2023/05/06 10:42:17;;;;;;;2.50;0.90;;;;;;;27.49;31.32;97532.38;5027165;28;20493;-68
2023/05/06 10:44:57;;;;;;;1.50;0.80;;;;;;;27.48;31.71;97527.22;5038374;28;20434;-69
2023/05/06 10:47:22;;;;;;;1.60;1.20;;;;;;;27.06;31.58;97524.09;5024249;28;20194;-70
2023/05/06 10:50:38;;;;;;;1.97;1.07;;;;;;;27.28;31.91;97529.41;5035941;28;20807;-69
2023/05/06 10:53:04;;;;;;;1.13;0.93;;;;;;;27.38;31.77;97533.31;5005874;28;20226;-69
2023/05/06 10:55:34;;;;;;;3.33;1.00;;;;;;;27.60;31.44;97519.81;5030420;28;20455;-70
2023/05/06 10:58:12;;;;;;;7.20;1.50;;;;;;;27.87;32.48;97518.94;5035992;28;20183;-69
2023/05/06 11:00:38;;;;;;;7.30;1.30;;;;;;;27.99;31.02;97522.28;5023676;28;20464;-70
2023/05/06 11:03:11;;;;;;;2.13;1.20;;;;;;;27.65;30.68;97510.97;5018301;28;20442;-69
2023/05/06 11:05:47;;;;;;;4.23;1.00;;;;;;;27.61;30.84;97510.66;5033223;28;20191;-69
2023/05/06 11:08:14;;;;;;;2.17;1.40;;;;;;;27.60;30.57;97503.66;5025836;28;20444;-70
2023/05/06 11:10:39;;;;;;;2.33;1.17;;;;;;;27.48;30.42;97506.53;5029983;28;20423;-69
2023/05/06 11:13:24;;;;;;;4.70;1.10;;;;;;;27.48;31.39;97513.75;5031189;28;20616;-70
2023/05/06 11:15:51;;;;;;;2.07;1.30;;;;;;;27.76;31.42;97504.63;5038961;28;20566;-72
2023/05/06 11:18:26;;;;;;;1.70;1.10;;;;;;;27.79;31.75;97500.59;5033289;28;20427;-71
2023/05/06 11:21:19;;;;;;;4.33;1.40;;;;;;;27.60;32.24;97506.34;5030446;28;20464;-69
2023/05/06 11:23:53;;;;;;;1.47;1.30;;;;;;;27.56;32.36;97502.56;5028949;28;20456;-72
2023/05/06 11:26:19;;;;;;;3.47;1.50;;;;;;;27.40;32.22;97507.75;5032521;28;20421;-71
2023/05/06 11:28:46;;;;;;;3.73;1.40;;;;;;;27.46;33.08;97500.56;5032064;28;20422;-73
2023/05/06 11:31:12;;;;;;;2.10;1.40;;;;;;;27.32;32.45;97497.47;5031860;28;20223;-69
2023/05/06 11:33:45;;;;;;;2.37;1.50;;;;;;;27.24;31.91;97512.19;5028497;28;20429;-70